createdAt,value
2019-06-25T00:01:47.579Z,10.67
2019-06-25T00:05:56.379Z,11.50
2019-06-25T00:10:05.589Z,10.63
2019-06-25T00:14:14.387Z,9.90
2019-06-25T00:18:23.345Z,10.57
2019-06-25T00:22:32.303Z,10.00
2019-06-25T00:26:41.374Z,10.50
2019-06-25T00:30:50.227Z,10.40
2019-06-25T00:34:59.038Z,10.57
2019-06-25T00:39:07.972Z,10.60
2019-06-25T00:43:16.779Z,10.60
2019-06-25T00:47:25.586Z,10.67
2019-06-25T00:51:34.375Z,11.47
2019-06-25T00:55:43.318Z,10.70
2019-06-25T00:59:52.123Z,10.63
2019-06-25T01:04:01.064Z,11.57
2019-06-25T01:08:10.006Z,11.40
2019-06-25T01:12:18.905Z,11.47
2019-06-25T01:16:27.785Z,10.83
2019-06-25T01:20:36.642Z,11.50
2019-06-25T01:24:45.448Z,11.50
2019-06-25T01:28:54.306Z,11.47
2019-06-25T01:33:03.184Z,10.90
2019-06-25T01:37:11.982Z,10.83
2019-06-25T01:41:20.772Z,12.03
2019-06-25T01:45:29.655Z,10.93
2019-06-25T01:49:38.469Z,11.70
2019-06-25T01:53:47.326Z,11.63
2019-06-25T01:57:56.154Z,12.40
2019-06-25T02:02:05.253Z,11.37
2019-06-25T02:06:14.031Z,11.27
2019-06-25T02:10:23.166Z,11.53
2019-06-25T02:14:32.068Z,11.57
2019-06-25T02:18:40.860Z,10.80
2019-06-25T02:22:49.953Z,11.20
2019-06-25T02:26:58.746Z,11.70
2019-06-25T02:31:08.963Z,12.13
2019-06-25T02:35:18.326Z,11.93
2019-06-25T02:39:27.390Z,11.83
2019-06-25T02:43:36.573Z,11.67
2019-06-25T02:47:45.476Z,11.20
2019-06-25T02:51:54.319Z,11.93
2019-06-25T02:56:03.366Z,12.63
2019-06-25T03:00:13.571Z,12.27
2019-06-25T03:04:22.408Z,11.40
2019-06-25T03:08:31.415Z,11.37
2019-06-25T03:12:40.290Z,11.90
2019-06-25T03:16:49.312Z,11.97
2019-06-25T03:20:58.418Z,12.00
2019-06-25T03:25:07.463Z,12.23
2019-06-25T03:29:16.664Z,11.83
2019-06-25T03:33:25.552Z,11.90
2019-06-25T03:37:34.375Z,12.10
2019-06-25T03:41:43.238Z,12.20
2019-06-25T03:45:52.070Z,11.70
2019-06-25T03:50:00.995Z,11.93
2019-06-25T03:54:10.058Z,12.10
2019-06-25T03:58:19.083Z,11.40
2019-06-25T04:02:28.000Z,11.60
2019-06-25T04:06:36.869Z,10.97
2019-06-25T04:10:45.822Z,10.83
2019-06-25T04:14:54.591Z,11.03
2019-06-25T04:19:03.408Z,10.50
2019-06-25T04:23:12.322Z,10.90
2019-06-25T04:27:21.235Z,11.30
2019-06-25T04:31:30.039Z,9.97
2019-06-25T04:35:38.868Z,10.77
2019-06-25T04:39:47.656Z,11.20
2019-06-25T04:43:56.466Z,10.53
2019-06-25T04:48:05.394Z,10.43
2019-06-25T04:52:14.166Z,9.73
2019-06-25T04:56:23.214Z,9.93
2019-06-25T05:00:32.007Z,9.97
2019-06-25T05:04:40.778Z,10.20
2019-06-25T05:08:49.575Z,9.70
2019-06-25T05:12:58.658Z,9.50
2019-06-25T05:17:07.436Z,8.73
2019-06-25T05:21:16.302Z,9.50
2019-06-25T05:25:25.435Z,9.43
2019-06-25T05:29:34.345Z,9.50
2019-06-25T05:33:43.320Z,10.27
2019-06-25T05:37:52.332Z,9.47
2019-06-25T05:42:02.272Z,10.30
2019-06-25T05:46:11.240Z,9.63
2019-06-25T05:50:20.191Z,10.50
2019-06-25T05:54:29.077Z,10.60
2019-06-25T05:58:37.999Z,10.10
2019-06-25T06:02:46.934Z,10.70
2019-06-25T06:06:55.827Z,9.73
2019-06-25T06:11:04.903Z,9.63
2019-06-25T06:15:14.697Z,9.80
2019-06-25T06:19:23.731Z,9.47
2019-06-25T06:23:33.393Z,8.33
2019-06-25T06:27:42.275Z,7.77
2019-06-25T06:31:51.183Z,8.60
2019-06-25T06:36:00.188Z,8.00
2019-06-25T06:40:09.576Z,8.10
2019-06-25T06:44:18.518Z,8.90
2019-06-25T06:48:27.476Z,8.70
2019-06-25T06:52:36.319Z,8.10
2019-06-25T06:56:45.370Z,7.67
2019-06-25T07:00:54.202Z,7.77
2019-06-25T07:05:03.234Z,7.63
2019-06-25T07:09:12.039Z,7.80
2019-06-25T07:13:20.906Z,8.20
2019-06-25T07:17:30.550Z,7.43
2019-06-25T07:21:39.466Z,8.83
2019-06-25T07:25:48.347Z,7.53
2019-06-25T07:29:57.499Z,7.73
2019-06-25T07:34:09.868Z,7.70
2019-06-25T07:38:17.447Z,7.73
2019-06-25T07:42:26.400Z,7.50
2019-06-25T07:46:35.423Z,7.70
2019-06-25T07:50:44.371Z,8.07
2019-06-25T07:54:53.489Z,8.03
2019-06-25T07:59:02.226Z,7.87
2019-06-25T08:03:11.116Z,7.83
2019-06-25T08:07:20.035Z,8.20
2019-06-25T08:11:28.823Z,7.83
2019-06-25T08:15:37.651Z,8.37
2019-06-25T08:19:46.478Z,8.10
2019-06-25T08:23:55.258Z,8.67
2019-06-25T08:28:04.195Z,7.90
2019-06-25T08:32:13.032Z,8.43
2019-06-25T08:36:22.160Z,8.40
2019-06-25T08:40:31.418Z,8.67
2019-06-25T08:44:40.290Z,8.77
2019-06-25T08:48:49.215Z,7.43
2019-06-25T08:52:59.077Z,7.30
2019-06-25T08:57:08.035Z,7.80
2019-06-25T09:01:16.955Z,8.00
2019-06-25T09:05:25.818Z,7.70
2019-06-25T09:09:34.994Z,7.50
2019-06-25T09:13:43.936Z,7.03
2019-06-25T09:17:52.850Z,7.43
2019-06-25T09:22:01.781Z,7.80
2019-06-25T09:26:10.697Z,7.00
2019-06-25T09:30:19.889Z,6.70
2019-06-25T09:34:28.751Z,7.20
2019-06-25T09:38:37.644Z,7.83
2019-06-25T09:42:46.477Z,7.73
2019-06-25T09:46:57.630Z,7.23
2019-06-25T09:51:06.802Z,7.13
2019-06-25T09:55:15.715Z,7.63
2019-06-25T09:59:24.639Z,7.60
2019-06-25T10:03:33.490Z,8.53
2019-06-25T10:07:42.248Z,7.80
2019-06-25T10:11:51.339Z,7.70
2019-06-25T10:16:00.172Z,7.50
2019-06-25T10:20:09.794Z,7.53
2019-06-25T10:24:18.939Z,7.73
2019-06-25T10:28:31.852Z,7.10
2019-06-25T10:32:38.320Z,7.27
2019-06-25T10:36:47.174Z,7.23
2019-06-25T10:40:56.016Z,7.73
2019-06-25T10:45:05.346Z,6.70
2019-06-25T10:49:14.139Z,7.27
2019-06-25T10:53:22.998Z,7.00
2019-06-25T10:57:31.788Z,6.90
2019-06-25T11:01:40.764Z,7.00
2019-06-25T11:06:03.379Z,7.07
2019-06-25T11:10:00.345Z,7.20
2019-06-25T11:14:09.371Z,7.57
2019-06-25T11:18:18.356Z,7.10
2019-06-25T11:22:27.153Z,6.50
2019-06-25T11:26:36.131Z,6.40
2019-06-25T11:30:44.950Z,7.07
2019-06-25T11:34:55.727Z,6.33
2019-06-25T11:39:08.021Z,6.37
2019-06-25T11:43:16.874Z,6.13
2019-06-25T11:47:25.670Z,6.30
2019-06-25T11:51:36.348Z,6.70
2019-06-25T11:55:45.155Z,6.60
2019-06-25T11:59:54.445Z,5.93
2019-06-25T12:04:03.233Z,5.77
2019-06-25T12:08:12.002Z,6.40
2019-06-25T12:12:21.353Z,6.63
2019-06-25T12:16:30.186Z,6.40
2019-06-25T12:20:38.958Z,6.77
2019-06-25T12:24:47.745Z,6.60
2019-06-25T12:28:56.534Z,6.30
2019-06-25T12:33:05.542Z,6.57
2019-06-25T12:37:14.335Z,6.63
2019-06-25T12:41:23.114Z,6.13
2019-06-25T12:45:33.126Z,5.83
2019-06-25T12:49:42.344Z,6.90
2019-06-25T12:53:51.131Z,6.60
2019-06-25T12:57:59.904Z,6.90
2019-06-25T13:02:08.970Z,6.90
2019-06-25T13:06:17.854Z,6.33
2019-06-25T13:10:40.030Z,6.00
2019-06-25T13:14:37.744Z,5.90
2019-06-25T13:18:46.571Z,5.90
2019-06-25T13:22:55.347Z,6.57
2019-06-25T13:27:04.202Z,6.60
2019-06-25T13:31:13.057Z,6.93
2019-06-25T13:35:21.839Z,7.40
2019-06-25T13:39:30.653Z,7.20
2019-06-25T13:43:39.474Z,6.53
2019-06-25T13:47:48.250Z,6.83
2019-06-25T13:51:57.023Z,7.10
2019-06-25T13:56:05.991Z,7.40
2019-06-25T14:00:15.342Z,7.40
2019-06-25T14:04:24.122Z,7.60
2019-06-25T14:08:32.916Z,7.23
2019-06-25T14:12:41.678Z,7.23
2019-06-25T14:16:50.523Z,7.37
2019-06-25T14:20:59.416Z,7.57
2019-06-25T14:25:08.749Z,7.10
2019-06-25T14:29:17.606Z,7.27
2019-06-25T14:33:26.402Z,7.47
2019-06-25T14:37:35.334Z,7.50
2019-06-25T14:41:44.861Z,6.67
2019-06-25T14:45:53.643Z,6.63
2019-06-25T14:50:02.531Z,7.13
2019-06-25T14:54:11.306Z,6.90
2019-06-25T14:58:20.124Z,7.70
2019-06-25T15:02:28.994Z,7.40
2019-06-25T15:06:37.830Z,7.30
2019-06-25T15:10:47.455Z,7.57
2019-06-25T15:14:56.264Z,7.70
2019-06-25T15:19:05.490Z,7.40
2019-06-25T15:23:16.593Z,7.40
2019-06-25T15:27:24.940Z,7.70
2019-06-25T15:31:34.209Z,7.80
2019-06-25T15:35:42.999Z,8.10
2019-06-25T15:39:51.774Z,8.40
2019-06-25T15:44:00.561Z,7.60
2019-06-25T15:48:09.423Z,7.90
2019-06-25T15:52:18.211Z,8.30
2019-06-25T15:56:27.078Z,8.40
2019-06-25T16:00:35.969Z,8.20
2019-06-25T16:04:44.743Z,8.00
2019-06-25T16:09:02.708Z,8.37
2019-06-25T16:13:04.125Z,7.43
2019-06-25T16:17:13.068Z,8.40
2019-06-25T16:21:21.948Z,8.20
2019-06-25T16:25:30.750Z,8.47
2019-06-25T16:29:39.527Z,7.83
2019-06-25T16:33:48.588Z,7.27
2019-06-25T16:37:57.430Z,7.60
2019-06-25T16:42:06.357Z,6.90
2019-06-25T16:46:15.153Z,7.60
2019-06-25T16:50:24.079Z,7.90
2019-06-25T16:54:32.857Z,7.50
2019-06-25T16:58:41.794Z,6.77
2019-06-25T17:02:54.570Z,7.50
2019-06-25T17:07:01.303Z,7.23
2019-06-25T17:11:10.221Z,7.20
2019-06-25T17:15:19.399Z,6.90
2019-06-25T17:19:28.535Z,7.50
2019-06-25T17:23:37.417Z,7.20
2019-06-25T17:27:50.496Z,7.70
2019-06-25T17:31:56.851Z,7.67
2019-06-25T17:36:06.424Z,7.70
2019-06-25T17:40:15.882Z,7.47
2019-06-25T17:44:25.059Z,7.37
2019-06-25T17:48:33.852Z,7.90
2019-06-25T17:52:42.743Z,7.00
2019-06-25T17:56:51.582Z,7.53
2019-06-25T18:01:00.442Z,7.40
2019-06-25T18:05:09.530Z,8.30
2019-06-25T18:09:18.662Z,8.57
2019-06-25T18:13:27.618Z,7.70
2019-06-25T18:17:36.471Z,7.73
2019-06-25T18:21:45.515Z,8.07
2019-06-25T18:25:54.370Z,7.83
2019-06-25T18:30:03.297Z,7.93
2019-06-25T18:34:12.122Z,7.90
2019-06-25T18:38:20.923Z,7.80
2019-06-25T18:42:29.793Z,7.70
2019-06-25T18:46:38.624Z,7.80
2019-06-25T18:50:47.414Z,7.60
2019-06-25T18:54:56.271Z,8.60
2019-06-25T18:59:05.488Z,8.10
2019-06-25T19:03:14.280Z,8.17
2019-06-25T19:07:23.058Z,8.47
2019-06-25T19:11:31.909Z,8.90
2019-06-25T19:15:40.958Z,8.77
2019-06-25T19:19:49.739Z,8.27
2019-06-25T19:23:58.526Z,9.60
2019-06-25T19:28:07.524Z,9.20
2019-06-25T19:32:16.310Z,9.27
2019-06-25T19:36:25.113Z,9.83
2019-06-25T19:40:33.898Z,9.53
2019-06-25T19:44:42.802Z,9.80
2019-06-25T19:48:51.722Z,8.87
2019-06-25T19:53:00.542Z,8.90
2019-06-25T19:57:09.680Z,9.70
2019-06-25T20:01:18.655Z,9.47
2019-06-25T20:05:27.579Z,9.63
2019-06-25T20:09:36.818Z,10.13
2019-06-25T20:13:45.596Z,9.90
2019-06-25T20:17:54.436Z,10.70
2019-06-25T20:22:03.581Z,11.57
2019-06-25T20:26:12.423Z,10.07
2019-06-25T20:30:21.622Z,10.50
2019-06-25T20:34:30.403Z,10.63
2019-06-25T20:38:39.278Z,10.40
2019-06-25T20:42:48.441Z,10.60
2019-06-25T20:46:57.244Z,10.60
2019-06-25T20:51:06.127Z,10.60
2019-06-25T20:55:15.003Z,11.87
2019-06-25T20:59:23.796Z,11.63
2019-06-25T21:03:32.682Z,10.60
2019-06-25T21:07:41.458Z,10.30
2019-06-25T21:11:50.330Z,10.80
2019-06-25T21:15:59.139Z,11.27
2019-06-25T21:20:08.107Z,11.10
2019-06-25T21:24:16.963Z,11.30
2019-06-25T21:28:25.744Z,11.63
2019-06-25T21:32:34.554Z,11.60
2019-06-25T21:36:43.343Z,10.97
2019-06-25T21:40:52.126Z,10.93
2019-06-25T21:45:00.925Z,10.57
2019-06-25T21:49:09.971Z,12.00
2019-06-25T21:53:18.836Z,11.90
2019-06-25T21:57:27.614Z,11.57
2019-06-25T22:01:38.317Z,11.23
2019-06-25T22:05:47.178Z,12.93
2019-06-25T22:09:56.124Z,11.57
2019-06-25T22:14:05.060Z,12.10
2019-06-25T22:18:13.854Z,12.30
2019-06-25T22:22:22.643Z,11.27
2019-06-25T22:26:31.507Z,12.57
2019-06-25T22:30:40.484Z,12.70
2019-06-25T22:34:49.291Z,11.87
2019-06-25T22:38:58.379Z,11.73
2019-06-25T22:43:07.250Z,11.80
2019-06-25T22:47:16.134Z,12.47
2019-06-25T22:51:25.152Z,12.00
2019-06-25T22:55:33.960Z,12.60
2019-06-25T22:59:42.771Z,11.37
2019-06-25T23:03:51.566Z,11.63
2019-06-25T23:08:00.368Z,12.80
2019-06-25T23:12:09.295Z,12.77
2019-06-25T23:16:18.082Z,12.30
2019-06-25T23:20:27.023Z,12.70
2019-06-25T23:24:35.912Z,13.60
2019-06-25T23:28:44.707Z,12.93
2019-06-25T23:32:54.142Z,13.10
2019-06-25T23:37:03.023Z,13.87
2019-06-25T23:41:12.056Z,14.00
2019-06-25T23:45:20.943Z,13.15
2019-06-25T23:49:29.731Z,13.37
2019-06-25T23:53:38.618Z,14.57
2019-06-25T23:57:47.468Z,13.47
